Latest Weather Observations for Williamtown

IDN60901

Issued at 9:21 pm EDT Monday 5 December 2016 (issued every 10 minutes, with the page automatically refreshed every 10 minutes)

About weather observations | Map of Sydney area stations | Latest observations for Sydney area | Other Formats
Station Details ID: 061078 Name: WILLIAMTOWN RAAF Lat: -32.79 Lon: 151.84 Height: 7.5 m
Data from the previous 72 hours. | See also: Recent months at Williamtown
Date/Time
EDT
Temp
°C
App
Temp
°C
Dew
Point
°C
Rel
Hum
%
Delta-T
°C
Wind Press
QNH
hPa
Press
MSL
hPa
Rain since
9am
mm
Dir  Spd
km/h
Gust
km/h
Spd
kts
Gust
kts
05/09:00pm 23.2 23.1 20.0 82 2.1 NE 20 33 11 18 1010.4 1010.3 1.8
05/08:30pm 23.3 22.9 20.1 82 2.1 NE 22 32 12 17 1010.6 1010.5 1.8
05/08:00pm 24.7 25.3 19.5 73 3.3 N 15 20 8 11 1011.4 1011.3 1.8
05/07:30pm 24.6 24.8 19.4 73 3.3 ENE 17 22 9 12 1009.6 1009.5 1.8
05/07:00pm 24.4 23.6 20.1 77 2.8 SE 24 32 13 17 1009.5 1009.4 1.8
05/06:30pm 24.9 23.0 20.2 75 3.1 SSE 30 44 16 24 1009.1 1009.0 1.8
05/06:00pm 25.2 21.8 20.7 76 3.0 SSE 39 78 21 42 1008.3 1008.3 1.8
05/05:50pm 26.0 25.5 20.8 73 3.4 SW 24 83 13 45 1007.6 1007.6 1.8
05/05:42pm 27.6 30.5 23.2 77 3.0 NNE 13 19 7 10 1006.1 1006.1 1.8
05/05:30pm 27.7 30.2 23.1 76 3.1 NNE 15 20 8 11 1005.8 1005.8 1.8
05/05:17pm 27.7 29.3 22.2 72 3.7 SE 17 24 9 13 1006.1 1006.1 1.8
05/05:00pm 27.3 29.7 22.9 77 3.0 NE 15 22 8 12 1005.7 1005.7 1.8
05/04:38pm 28.9 30.8 21.4 64 5.0 NNE 13 26 7 14 1006.7 1006.7 0.4
05/04:30pm 28.1 30.4 22.1 70 4.0 ENE 13 24 7 13 1006.0 1006.0 0.4
05/04:00pm 28.4 30.8 22.2 69 4.2 NE 13 17 7 9 1006.1 1006.1 0.4
05/03:30pm 29.1 32.0 21.8 64 4.9 E 9 19 5 10 1006.1 1006.1 0.4
05/03:10pm 30.6 30.9 19.6 51 7.2 E 17 26 9 14 1005.5 1005.5 0.0
05/03:00pm 31.5 31.9 19.8 49 7.7 E 17 24 9 13 1005.4 1005.4 0.0
05/02:30pm 33.0 33.5 21.2 50 8.0 ESE 20 26 11 14 1005.6 1005.6 0.0
05/02:00pm 33.9 35.4 21.3 47 8.5 ESE 15 22 8 12 1006.5 1006.5 0.0
05/01:30pm 33.4 34.3 20.9 48 8.4 SE 17 26 9 14 1006.9 1006.9 0.0
05/01:00pm 33.8 35.2 19.5 43 9.5 ENE 11 15 6 8 1006.9 1006.9 0.0
05/12:30pm 32.0 34.8 20.9 52 7.4 WSW 7 13 4 7 1007.6 1007.6 0.0
05/12:00pm 30.3 33.1 20.5 55 6.5 WSW 6 11 3 6 1008.0 1008.0 0.0
05/11:30am 29.9 32.6 20.7 57 6.1 W 7 11 4 6 1008.3 1008.3 0.0
05/11:00am 27.9 30.1 20.5 64 4.9 NNW 9 13 5 7 1008.9 1008.8 0.0
05/10:30am 27.5 29.4 20.6 66 4.5 N 11 19 6 10 1009.1 1009.0 0.0
05/10:00am 26.1 28.5 20.9 73 3.4 WNW 9 13 5 7 1009.5 1009.4 0.0
05/09:30am 24.4 27.2 20.9 81 2.3 NW 7 11 4 6 1009.8 1009.7 0.0
05/09:00am 23.4 25.2 21.1 87 1.5 NNE 13 17 7 9 1009.2 1009.1 0.0
05/08:30am 23.2 25.4 21.1 88 1.4 SSE 11 15 6 8 1010.3 1010.2 0.0
05/08:00am 22.9 23.9 21.0 89 1.2 S 17 22 9 12 1011.0 1010.9 0.0
05/07:30am 22.7 21.9 20.8 89 1.2 S 26 33 14 18 1010.4 1010.3 0.0
05/07:00am 23.0 22.6 20.9 88 1.4 S 24 30 13 16 1010.7 1010.6 0.0
05/06:30am 21.7 23.4 19.4 87 1.5 WSW 9 13 5 7 1010.0 1009.9 0.0
05/06:00am 21.9 22.6 18.9 83 1.9 W 13 19 7 10 1009.1 1009.0 0.0
05/05:30am 22.3 24.8 18.1 77 2.6 NNW 2 7 1 4 1007.8 1007.8 0.0
05/05:00am 23.0 24.2 18.3 75 3.0 NNE 9 13 5 7 1007.3 1007.3 0.0
05/04:30am 22.9 24.1 19.1 79 2.4 ENE 11 13 6 7 1007.3 1007.3 0.0
05/04:00am 22.9 24.2 19.3 80 2.3 NE 11 15 6 8 1007.2 1007.2 0.0
05/03:30am 22.9 24.2 19.3 80 2.3 NNE 11 15 6 8 1007.5 1007.5 0.0
05/03:00am 23.1 24.4 19.3 79 2.4 NE 11 15 6 8 1007.6 1007.6 0.0
05/02:30am 23.0 24.2 19.8 82 2.1 NE 13 17 7 9 1008.2 1008.2 0.0
05/02:00am 23.0 24.5 19.8 82 2.1 NE 11 17 6 9 1008.9 1008.8 0.0
05/01:30am 23.1 25.0 19.7 81 2.2 NE 9 13 5 7 1009.5 1009.4 0.0
05/01:00am 23.0 24.5 19.8 82 2.1 NE 11 15 6 8 1010.0 1009.9 0.0
05/12:30am 22.9 24.7 19.5 81 2.2 ENE 9 13 5 7 1010.5 1010.4 0.0
05/12:00am 22.9 24.6 19.3 80 2.3 ENE 9 13 5 7 1011.0 1010.9 0.0
 
Date/Time
EDT
Temp
°C
App
Temp
°C
Dew
Point
°C
Rel
Hum
%
Delta-T
°C
Wind Press
QNH
hPa
Press
MSL
hPa
Rain since
9am
mm
Dir  Spd
km/h
Gust
km/h
Spd
kts
Gust
kts
04/11:30pm 23.1 24.8 19.3 79 2.4 NE 9 13 5 7 1011.5 1011.4 0.0
04/11:00pm 23.1 24.4 19.3 79 2.4 NE 11 15 6 8 1011.6 1011.5 0.0
04/10:30pm 22.9 24.3 19.5 81 2.2 ENE 11 15 6 8 1011.9 1011.8 0.0
04/10:00pm 22.8 23.9 19.6 82 2.0 ENE 13 19 7 10 1012.0 1011.9 0.0
04/09:30pm 23.0 24.2 19.8 82 2.1 ENE 13 17 7 9 1012.0 1011.9 0.0
04/09:00pm 23.0 23.5 20.0 83 1.9 ENE 17 22 9 12 1012.0 1011.9 0.0
04/08:30pm 23.3 23.2 19.9 81 2.2 ENE 20 28 11 15 1011.9 1011.8 0.0
04/08:00pm 23.5 23.3 19.8 80 2.4 ENE 20 30 11 16 1011.9 1011.8 0.0
04/07:30pm 23.7 22.8 19.8 79 2.5 ENE 24 33 13 18 1011.6 1011.5 0.0
04/07:00pm 24.0 22.9 19.5 76 2.9 ENE 24 35 13 19 1011.6 1011.5 0.0
04/06:30pm 24.5 22.9 19.1 72 3.4 ENE 26 39 14 21 1011.6 1011.5 0.0
04/06:00pm 25.4 23.2 18.8 67 4.2 ENE 28 41 15 22 1011.6 1011.5 0.0
04/05:30pm 26.4 25.1 19.0 63 4.7 NE 24 32 13 17 1011.7 1011.6 0.0
04/05:00pm 27.6 27.0 19.7 62 5.1 E 22 30 12 16 1011.8 1011.7 0.0
04/04:30pm 26.5 25.6 19.9 67 4.3 ESE 24 33 13 18 1012.0 1011.9 0.0
04/04:00pm 26.5 25.8 19.6 66 4.5 E 22 32 12 17 1012.2 1012.1 0.0
04/03:30pm 26.5 25.4 19.4 65 4.6 E 24 32 13 17 1012.6 1012.5 0.0
04/03:00pm 25.9 24.6 19.1 66 4.4 ESE 24 30 13 16 1013.1 1013.0 0.0
04/02:30pm 27.2 26.3 19.8 64 4.8 ESE 24 32 13 17 1013.2 1013.1 0.0
04/02:00pm 27.5 25.8 19.8 63 5.0 SE 28 33 15 18 1013.3 1013.2 0.0
04/01:30pm 26.7 26.4 19.6 65 4.6 SE 20 30 11 16 1013.6 1013.5 0.0
04/01:00pm 26.0 26.2 19.4 67 4.3 ESE 17 26 9 14 1014.1 1014.0 0.0
04/12:30pm 25.6 25.9 19.5 69 3.9 SE 17 24 9 13 1014.6 1014.5 0.0
04/12:00pm 25.3 27.4 19.0 68 4.0 WSW 6 11 3 6 1015.1 1015.0 0.0
04/11:30am 24.4 26.4 18.8 71 3.6 NNE 6 11 3 6 1015.5 1015.4 0.0
04/11:00am 24.0 25.6 19.1 74 3.1 SSE 9 11 5 6 1015.7 1015.6 0.0
04/10:39am 23.4 24.9 18.9 76 2.9 SSE 9 13 5 7 1015.9 1015.8 0.0
04/10:30am 23.1 24.2 18.8 77 2.7 S 11 17 6 9 1015.9 1015.8 0.0
04/10:29am 23.2 24.3 18.9 77 2.7 SSW 11 17 6 9 1015.9 1015.8 0.0
04/10:24am 23.3 24.8 18.8 76 2.8 WSW 9 17 5 9 1016.0 1015.9 0.0
04/10:00am 23.0 24.9 19.0 78 2.5 WSW 7 11 4 6 1016.1 1016.0 0.0
04/09:37am 22.7 24.6 18.9 79 2.4 WSW 7 9 4 5 1016.1 1016.0 0.0
04/09:34am 22.8 25.0 19.2 80 2.3 WSW 6 9 3 5 1016.1 1016.0 0.0
04/09:30am 22.8 25.8 19.2 80 2.3 WSW 2 9 1 5 1016.1 1016.0 0.0
04/09:18am 22.4 24.6 19.2 82 2.0 WSW 6 9 3 5 1016.0 1015.9 0.0
04/09:00am 22.0 24.2 19.2 84 1.8 WSW 6 9 3 5 1016.2 1016.1 0.0
04/08:30am 20.7 23.2 19.0 90 1.1 WSW 4 7 2 4 1015.9 1015.8 0.0
04/08:00am 19.9 20.9 18.7 93 0.7 WSW 11 11 6 6 1016.2 1016.1 0.0
04/07:30am 19.5 20.9 18.7 95 0.5 WSW 9 13 5 7 1016.0 1015.9 0.0
04/07:23am 19.5 20.1 18.7 95 0.5 WSW 13 15 7 8 1015.9 1015.8 0.0
04/07:00am 19.1 20.1 18.6 97 0.3 WSW 11 13 6 7 1015.7 1015.6 0.0
04/06:32am 18.4 19.5 18.1 98 0.2 WSW 9 11 5 6 1015.5 1015.4 0.0
04/06:30am 18.3 19.4 18.0 98 0.2 WSW 9 11 5 6 1015.4 1015.3 0.0
04/06:28am 18.3 19.4 18.0 98 0.2 WSW 9 11 5 6 1015.4 1015.3 0.0
04/06:00am 17.7 18.5 17.2 97 0.3 WSW 9 9 5 5 1015.1 1015.0 0.0
04/05:51am 17.7 18.8 17.2 97 0.3 WSW 7 9 4 5 1015.1 1015.0 0.0
04/05:30am 17.5 18.5 16.9 96 0.4 WSW 7 9 4 5 1014.9 1014.8 0.0
04/05:00am 17.3 18.7 16.3 94 0.6 WSW 4 6 2 3 1014.8 1014.7 0.0
04/04:55am 17.3 18.7 16.5 95 0.5 WSW 4 6 2 3 1014.8 1014.7 0.0
04/04:37am 18.3 20.3 17.8 97 0.3 WSW 4 7 2 4 1014.6 1014.5 0.0
04/04:30am 18.2 19.7 17.6 96 0.4 WSW 6 7 3 4 1014.6 1014.5 0.0
04/04:00am 17.4 19.6 16.4 94 0.6 CALM 0 0 0 0 1014.8 1014.7 0.0
04/03:31am 18.3 21.0 17.8 97 0.3 CALM 0 0 0 0 1014.7 1014.6 0.0
04/03:30am 18.3 21.0 17.7 96 0.4 CALM 0 0 0 0 1014.7 1014.6 0.0
04/03:10am 18.1 20.7 17.5 96 0.4 CALM 0 0 0 0 1014.8 1014.7 0.0
04/03:00am 17.8 19.1 17.0 95 0.5 SSE 6 9 3 5 1014.7 1014.6 0.0
04/02:45am 17.4 18.8 16.4 94 0.6 SSW 4 7 2 4 1014.6 1014.5 0.0
04/02:30am 17.2 19.2 15.9 92 0.8 CALM 0 0 0 0 1014.7 1014.6 0.0
04/02:23am 17.4 19.5 16.3 93 0.7 CALM 0 0 0 0 1014.9 1014.8 0.0
04/02:00am 18.3 20.9 17.5 95 0.5 CALM 0 0 0 0 1015.0 1014.9 0.0
04/01:37am 18.1 20.5 17.1 94 0.6 CALM 0 0 0 0 1015.3 1015.2 0.0
04/01:30am 18.2 20.8 17.4 95 0.5 CALM 0 0 0 0 1015.4 1015.3 0.0
04/01:23am 18.6 21.3 17.8 95 0.5 CALM 0 0 0 0 1015.5 1015.4 0.0
04/01:00am 18.5 21.1 17.5 94 0.6 CALM 0 0 0 0 1015.4 1015.3 0.0
04/12:30am 19.1 20.7 17.9 93 0.7 SE 6 9 3 5 1015.3 1015.2 0.0
04/12:00am 19.2 22.0 17.9 92 0.8 CALM 0 0 0 0 1015.6 1015.5 0.0
 
Date/Time
EDT
Temp
°C
App
Temp
°C
Dew
Point
°C
Rel
Hum
%
Delta-T
°C
Wind Press
QNH
hPa
Press
MSL
hPa
Rain since
9am
mm
Dir  Spd
km/h
Gust
km/h
Spd
kts
Gust
kts
03/11:30pm 19.5 20.4 17.6 89 1.2 SE 9 11 5 6 1015.5 1015.4 0.0
03/11:00pm 19.7 20.7 17.7 88 1.2 SE 9 11 5 6 1015.5 1015.4 0.0
03/10:30pm 20.0 20.8 17.2 84 1.7 SE 9 11 5 6 1015.7 1015.6 0.0
03/10:00pm 20.8 21.4 17.8 83 1.9 E 11 13 6 7 1015.7 1015.6 0.0
03/09:30pm 20.8 21.7 17.6 82 2.0 ESE 9 13 5 7 1015.7 1015.6 0.0
03/09:00pm 21.1 21.7 17.7 81 2.1 E 11 15 6 8 1015.5 1015.4 0.0
03/08:30pm 21.2 22.2 17.8 81 2.1 E 9 13 5 7 1015.4 1015.3 0.0
03/08:00pm 21.6 21.9 17.8 79 2.4 ESE 13 17 7 9 1014.9 1014.8 0.0
03/07:30pm 22.2 22.1 17.8 76 2.7 E 15 19 8 10 1014.6 1014.5 0.0
03/07:00pm 22.7 22.4 17.4 72 3.3 E 15 19 8 10 1014.3 1014.2 0.0
03/06:30pm 23.2 22.4 17.0 68 3.8 E 17 24 9 13 1013.9 1013.8 0.0
03/06:00pm 22.9 21.9 17.6 72 3.3 ESE 19 26 10 14 1013.6 1013.5 0.0
03/05:30pm 22.5 21.3 17.0 71 3.4 ESE 19 30 10 16 1013.1 1013.0 0.0
03/05:00pm 22.6 21.4 17.1 71 3.4 ESE 19 24 10 13 1013.8 1013.7 0.0
03/04:30pm 22.8 20.3 17.0 70 3.6 ESE 26 33 14 18 1013.6 1013.5 0.0
03/04:00pm 24.3 22.3 17.3 65 4.3 ESE 24 32 13 17 1013.7 1013.6 0.0
03/03:30pm 24.4 21.9 16.1 60 5.1 ESE 24 30 13 16 1014.1 1014.0 0.0
03/03:00pm 24.7 22.0 15.6 57 5.5 SE 24 32 13 17 1014.5 1014.4 0.0
03/02:30pm 24.9 22.5 16.3 59 5.3 SE 24 32 13 17 1014.8 1014.7 0.0
03/02:00pm 25.4 22.0 14.8 52 6.3 SE 26 35 14 19 1014.9 1014.8 0.0
03/01:30pm 24.5 21.6 16.0 59 5.2 SE 26 35 14 19 1014.8 1014.7 0.0
03/01:00pm 26.0 23.0 16.8 57 5.7 SE 28 37 15 20 1015.2 1015.1 0.0
03/12:30pm 24.8 22.3 17.0 62 4.8 SE 26 33 14 18 1015.2 1015.1 0.0
03/12:00pm 25.5 22.8 16.6 58 5.5 SSE 26 33 14 18 1015.4 1015.3 0.0
03/11:30am 26.1 23.8 17.7 60 5.3 SSE 26 33 14 18 1015.7 1015.6 0.0
03/11:00am 24.7 21.8 16.2 59 5.2 SSE 26 32 14 17 1015.8 1015.7 0.0
03/10:30am 24.9 22.0 16.1 58 5.4 SSE 26 32 14 17 1015.7 1015.6 0.0
03/10:00am 24.3 21.9 16.3 61 4.9 SSE 24 32 13 17 1015.8 1015.7 0.0
03/09:30am 24.0 22.2 17.0 65 4.3 S 22 32 12 17 1015.9 1015.8 0.0
03/09:00am 23.1 21.3 17.8 72 3.3 S 24 32 13 17 1015.9 1015.8 0.0
03/08:30am 23.4 22.2 18.3 73 3.2 S 22 32 12 17 1015.6 1015.5 0.0
03/08:00am 22.7 21.5 18.3 76 2.8 S 22 32 12 17 1015.1 1015.0 0.0
03/07:30am 22.4 21.0 18.8 80 2.3 S 24 30 13 16 1014.8 1014.7 0.0
03/07:00am 22.2 22.3 19.2 83 1.9 S 17 22 9 12 1014.4 1014.3 0.0
03/06:30am 21.6 21.2 19.0 85 1.6 S 19 30 10 16 1014.0 1013.9 0.0
03/06:00am 21.5 21.2 19.1 86 1.5 S 19 30 10 16 1013.5 1013.4 0.0
03/05:30am 21.4 21.2 19.3 88 1.3 SSW 19 28 10 15 1013.2 1013.1 0.0
03/05:00am 21.3 21.0 19.6 90 1.1 S 20 30 11 16 1012.6 1012.5 0.0
03/04:30am 21.5 21.1 19.4 88 1.3 S 20 28 11 15 1012.4 1012.3 0.0
03/04:00am 21.5 21.3 19.4 88 1.3 SSW 19 26 10 14 1012.3 1012.2 0.0
03/03:30am 21.8 22.2 19.9 89 1.2 SSW 17 26 9 14 1012.3 1012.2 0.0
03/03:00am 21.9 21.7 19.8 88 1.3 SSW 20 28 11 15 1012.3 1012.2 0.0
03/02:32am 22.0 21.9 19.9 88 1.3 SSW 20 30 11 16 1012.4 1012.3 0.0
03/02:30am 22.0 21.5 19.9 88 1.3 S 22 30 12 16 1012.4 1012.3 0.0
03/02:00am 22.2 20.6 20.1 88 1.4 SSW 28 37 15 20 1012.5 1012.4 0.0
03/01:30am 22.1 20.7 20.4 90 1.1 SSW 28 39 15 21 1012.5 1012.4 0.0
03/01:07am 21.9 20.5 20.4 91 1.0 SSW 28 39 15 21 1012.3 1012.2 0.0
03/01:00am 22.0 20.6 20.5 91 1.0 S 28 41 15 22 1012.1 1012.0 0.0
03/12:30am 22.4 20.9 20.3 88 1.4 S 28 37 15 20 1012.7 1012.6 0.0
03/12:21am 22.6 21.1 20.3 87 1.5 S 28 37 15 20 1012.7 1012.6 0.0
03/12:00am 21.6 23.0 15.4 68 3.7 WSW 2 7 1 4 1011.9 1011.8 0.0
 
Date/Time
EDT
Temp
°C
App
Temp
°C
Dew
Point
°C
Rel
Hum
%
Delta-T
°C
Wind Press
QNH
hPa
Press
MSL
hPa
Rain since
9am
mm
Dir  Spd
km/h
Gust
km/h
Spd
kts
Gust
kts
02/11:30pm 22.5 23.7 14.9 62 4.5 WSW 2 9 1 5 1011.9 1011.8 0.0
02/11:00pm 25.6 24.6 12.4 43 7.6 NNW 9 11 5 6 1011.5 1011.4 0.0
02/10:30pm 25.2 23.8 13.4 48 6.9 NNW 13 17 7 9 1011.4 1011.3 0.0
02/10:00pm 23.9 23.9 15.1 58 5.3 WSW 9 15 5 8 1011.5 1011.4 0.0
02/09:30pm 24.3 24.6 14.4 54 5.9 WSW 6 9 3 5 1011.2 1011.1 0.0

Latest Capital City Observations: Canberra | Sydney | Melbourne | Brisbane | Adelaide | Perth | Hobart | Darwin

Other Formats:

Comma delimited format used in spreadsheet applications
http://www.bom.gov.au/fwo/IDN60901/IDN60901.94776.axf

JavaScript Object Notation format (JSON) in row-major order
http://www.bom.gov.au/fwo/IDN60901/IDN60901.94776.json